KPNE/PNE METAR and TAF weather

Enter ICAO airport designator
Station Type Date Time Source
KPNE METAR 2021/04/17 01:54 UTC NOAA

KPNE 170154Z 34013KT 10SM OVC060 09/04 A2976 RMK AO2 SLP079 T00940039


Station Type Date Time Source
KPNE Decoded METAR 2021/04/17 01:54 UTC NOAA

N.E. PHILADELPHIA AIRPORT, PA, United States (KPNE) 40-05N 075-01W 28M
Apr 16, 2021 - 09:54 PM EDT / 2021.04.17 0154 UTC
Wind: from the NNW (340 degrees) at 15 MPH (13 KT):0
Visibility: 10 mile(s):0
Sky conditions: overcast
Temperature: 48.9 F (9.4 C)
Dew Point: 39.0 F (3.9 C)
Relative Humidity: 68%
Pressure (altimeter): 29.76 in. Hg (1007 hPa)
ob: KPNE 170154Z 34013KT 10SM OVC060 09/04 A2976 RMK AO2 SLP079 T00940039
cycle: 2

Station Type Date Time Source
KPNE TAF 2021/04/16 18:28 UTC NOAA

TAF KPNE 161725Z 1618/1718 30015G25KT P6SM VCSH BKN045
FM170200 31012KT P6SM BKN035
FM171000 33008KT P6SM SCT035 BKN100
FM171400 34010KT P6SM BKN040

Example: see airport list